createdAt,value
2023-02-01T00:00:08.079Z,16.41
2023-02-01T00:03:09.784Z,16.40
2023-02-01T00:06:11.263Z,16.39
2023-02-01T00:09:13.628Z,16.38
2023-02-01T00:12:15.101Z,16.36
2023-02-01T00:15:16.577Z,16.35
2023-02-01T00:18:18.035Z,16.33
2023-02-01T00:21:21.404Z,16.32
2023-02-01T00:24:22.878Z,16.29
2023-02-01T00:27:24.349Z,16.27
2023-02-01T00:30:25.835Z,16.26
2023-02-01T00:33:28.159Z,16.25
2023-02-01T00:36:30.306Z,16.24
2023-02-01T00:39:31.818Z,16.22
2023-02-01T00:42:33.318Z,16.21
2023-02-01T00:45:34.788Z,16.19
2023-02-01T00:48:37.164Z,16.18
2023-02-01T00:51:38.686Z,16.18
2023-02-01T00:54:40.240Z,16.20
2023-02-01T00:57:41.819Z,16.19
2023-02-01T01:00:43.347Z,16.21
2023-02-01T01:03:47.770Z,16.22
2023-02-01T01:06:49.314Z,16.23
2023-02-01T01:09:50.907Z,16.23
2023-02-01T01:12:52.398Z,16.21
2023-02-01T01:15:53.921Z,16.23
2023-02-01T01:18:56.123Z,16.23
2023-02-01T01:21:57.602Z,16.21
2023-02-01T01:24:59.106Z,16.21
2023-02-01T01:28:00.579Z,16.19
2023-02-01T01:31:02.258Z,16.20
2023-02-01T01:34:04.318Z,16.18
2023-02-01T01:37:06.393Z,16.17
2023-02-01T01:40:10.347Z,16.18
2023-02-01T01:43:17.636Z,16.18
2023-02-01T01:46:25.939Z,16.16
2023-02-01T01:49:27.635Z,16.14
2023-02-01T01:52:29.365Z,16.14
2023-02-01T01:55:35.538Z,16.14
2023-02-01T01:58:37.797Z,16.13
2023-02-01T02:01:39.728Z,16.12
2023-02-01T02:04:41.316Z,16.12
2023-02-01T02:07:47.115Z,16.11
2023-02-01T02:11:01.684Z,16.09
2023-02-01T02:14:08.804Z,16.09
2023-02-01T02:17:35.278Z,16.07
2023-02-01T02:20:55.661Z,16.05
2023-02-01T02:24:12.386Z,16.05
2023-02-01T02:27:25.268Z,16.03
2023-02-01T02:30:29.229Z,16.01
2023-02-01T02:33:52.611Z,16.03
2023-02-01T02:37:13.277Z,16.03
2023-02-01T02:40:30.237Z,16.04
2023-02-01T02:44:22.153Z,16.05
2023-02-01T02:47:52.783Z,16.05
2023-02-01T02:51:31.215Z,16.06
2023-02-01T02:54:51.755Z,16.04
2023-02-01T02:58:16.263Z,16.04
2023-02-01T03:01:36.372Z,16.03
2023-02-01T03:04:38.640Z,16.02
2023-02-01T03:08:14.155Z,16.04
2023-02-01T03:11:16.415Z,16.02
2023-02-01T03:14:22.023Z,16.02
2023-02-01T03:17:34.935Z,16.01
2023-02-01T03:20:40.348Z,16.01
2023-02-01T03:23:43.811Z,16.01
2023-02-01T03:26:58.778Z,16.01
2023-02-01T03:30:24.115Z,16.02
2023-02-01T03:33:28.059Z,16.00
2023-02-01T03:36:41.757Z,15.99
2023-02-01T03:39:58.402Z,15.98
2023-02-01T03:43:01.409Z,15.96
2023-02-01T03:46:10.194Z,15.96
2023-02-01T03:49:16.986Z,15.95
2023-02-01T03:52:29.614Z,15.94
2023-02-01T03:55:32.513Z,15.91
2023-02-01T03:58:34.295Z,15.90
2023-02-01T04:01:35.949Z,15.88
2023-02-01T04:04:37.674Z,15.87
2023-02-01T04:07:39.529Z,15.88
2023-02-01T04:10:41.046Z,15.90
2023-02-01T04:13:44.204Z,15.93
2023-02-01T04:16:45.925Z,15.94
2023-02-01T04:19:47.477Z,15.94
2023-02-01T04:22:48.983Z,15.95
2023-02-01T04:25:50.493Z,15.96
2023-02-01T04:28:53.613Z,15.98
2023-02-01T04:31:55.167Z,15.99
2023-02-01T04:34:56.684Z,16.00
2023-02-01T04:37:58.150Z,16.00
2023-02-01T04:41:00.575Z,16.02
2023-02-01T04:44:02.354Z,16.04
2023-02-01T04:47:03.868Z,16.06
2023-02-01T04:50:06.803Z,16.08
2023-02-01T04:53:09.362Z,16.09
2023-02-01T04:56:11.212Z,16.11
2023-02-01T04:59:13.057Z,16.13
2023-02-01T05:02:14.544Z,16.13
2023-02-01T05:05:16.014Z,16.14
2023-02-01T05:08:17.521Z,16.15
2023-02-01T05:11:57.335Z,16.15
2023-02-01T05:14:58.781Z,16.14
2023-02-01T05:18:00.297Z,16.13
2023-02-01T05:21:02.729Z,16.13
2023-02-01T05:24:10.340Z,16.11
2023-02-01T05:27:12.048Z,16.10
2023-02-01T05:30:13.898Z,16.08
2023-02-01T05:33:15.490Z,16.08
2023-02-01T05:36:17.304Z,16.07
2023-02-01T05:39:18.850Z,16.06
2023-02-01T05:42:20.332Z,16.04
2023-02-01T05:45:21.846Z,16.01
2023-02-01T05:48:23.391Z,16.00
2023-02-01T05:51:24.888Z,16.00
2023-02-01T05:54:26.381Z,16.00
2023-02-01T05:57:27.913Z,15.99
2023-02-01T06:00:29.422Z,16.01
2023-02-01T06:03:30.990Z,16.01
2023-02-01T06:06:32.767Z,16.04
2023-02-01T06:09:35.192Z,16.04
2023-02-01T06:12:36.682Z,16.05
2023-02-01T06:15:43.329Z,16.05
2023-02-01T06:18:44.891Z,16.07
2023-02-01T06:21:46.593Z,16.08
2023-02-01T06:24:48.652Z,16.10
2023-02-01T06:27:50.144Z,16.11
2023-02-01T06:30:52.361Z,16.12
2023-02-01T06:33:54.533Z,16.13
2023-02-01T06:36:56.059Z,16.14
2023-02-01T06:39:57.511Z,16.13
2023-02-01T06:42:59.388Z,16.15
2023-02-01T06:46:03.445Z,16.15
2023-02-01T06:49:05.011Z,16.15
2023-02-01T06:52:06.519Z,16.16
2023-02-01T06:55:08.273Z,16.14
2023-02-01T06:58:09.845Z,16.14
2023-02-01T07:01:11.885Z,16.13
2023-02-01T07:04:13.593Z,16.12
2023-02-01T07:07:16.098Z,16.09
2023-02-01T07:10:18.074Z,16.07
2023-02-01T07:13:19.596Z,16.05
2023-02-01T07:16:21.476Z,16.04
2023-02-01T07:19:23.023Z,16.02
2023-02-01T07:22:24.505Z,16.00
2023-02-01T07:25:26.085Z,16.00
2023-02-01T07:28:30.909Z,16.00
2023-02-01T07:31:32.394Z,15.97
2023-02-01T07:34:34.811Z,15.95
2023-02-01T07:37:37.102Z,15.95
2023-02-01T07:40:38.604Z,15.91
2023-02-01T07:43:40.109Z,15.90
2023-02-01T07:46:41.656Z,15.87
2023-02-01T07:49:43.111Z,15.84
2023-02-01T07:52:44.714Z,15.83
2023-02-01T07:55:46.179Z,15.82
2023-02-01T07:58:57.218Z,15.83
2023-02-01T08:01:58.897Z,15.79
2023-02-01T08:05:00.469Z,15.77
2023-02-01T08:08:02.017Z,15.76
2023-02-01T08:11:06.359Z,15.77
2023-02-01T08:14:07.947Z,15.74
2023-02-01T08:17:09.470Z,15.72
2023-02-01T08:20:12.178Z,15.71
2023-02-01T08:23:13.728Z,15.70
2023-02-01T08:26:23.824Z,15.70
2023-02-01T08:29:25.464Z,15.68
2023-02-01T08:32:28.086Z,15.68
2023-02-01T08:35:42.410Z,15.66
2023-02-01T08:38:45.041Z,15.65
2023-02-01T08:42:06.541Z,15.64
2023-02-01T08:45:08.890Z,15.64
2023-02-01T08:48:10.417Z,15.62
2023-02-01T08:51:13.474Z,15.62
2023-02-01T08:54:14.965Z,15.60
2023-02-01T08:57:16.507Z,15.58
2023-02-01T09:00:18.612Z,15.58
2023-02-01T09:03:20.281Z,15.57
2023-02-01T09:06:22.031Z,15.56
2023-02-01T09:09:24.409Z,15.57
2023-02-01T09:12:25.981Z,15.57
2023-02-01T09:15:27.751Z,15.56
2023-02-01T09:18:29.399Z,15.55
2023-02-01T09:21:31.040Z,15.55
2023-02-01T09:24:32.584Z,15.55
2023-02-01T09:27:34.748Z,15.57
2023-02-01T09:30:37.880Z,15.59
2023-02-01T09:33:40.995Z,15.60
2023-02-01T09:36:42.483Z,15.61
2023-02-01T09:39:44.156Z,15.62
2023-02-01T09:42:59.411Z,15.66
2023-02-01T09:46:22.906Z,15.66
2023-02-01T09:49:30.492Z,15.65
2023-02-01T09:52:58.455Z,15.66
2023-02-01T09:56:16.395Z,15.66
2023-02-01T09:59:29.976Z,15.65
2023-02-01T10:02:38.113Z,15.63
2023-02-01T10:06:01.392Z,15.62
2023-02-01T10:09:31.695Z,15.59
2023-02-01T10:12:33.130Z,15.58
2023-02-01T10:16:09.186Z,15.60
2023-02-01T10:19:33.783Z,15.58
2023-02-01T10:23:13.813Z,15.58
2023-02-01T10:26:28.291Z,15.56
2023-02-01T10:29:40.256Z,15.55
2023-02-01T10:32:42.234Z,15.54
2023-02-01T10:35:45.737Z,15.55
2023-02-01T10:38:47.443Z,15.56
2023-02-01T10:41:52.181Z,15.57
2023-02-01T10:44:55.700Z,15.57
2023-02-01T10:47:59.350Z,15.59
2023-02-01T10:51:22.083Z,15.60
2023-02-01T10:54:36.023Z,15.61
2023-02-01T10:57:37.468Z,15.61
2023-02-01T11:00:44.496Z,15.64
2023-02-01T11:03:54.671Z,15.68
2023-02-01T11:07:18.555Z,15.69
2023-02-01T11:10:41.724Z,15.70
2023-02-01T11:13:43.818Z,15.69
2023-02-01T11:16:50.821Z,15.71
2023-02-01T11:20:06.865Z,15.71
2023-02-01T11:23:20.601Z,15.71
2023-02-01T11:26:27.664Z,15.72
2023-02-01T11:29:37.772Z,15.75
2023-02-01T11:32:40.035Z,15.79
2023-02-01T11:35:43.173Z,15.82
2023-02-01T11:39:12.848Z,15.86
2023-02-01T11:42:16.964Z,15.86
2023-02-01T11:45:18.417Z,15.86
2023-02-01T11:48:26.821Z,15.85
2023-02-01T11:52:02.901Z,15.86
2023-02-01T11:55:55.168Z,15.84
2023-02-01T11:59:56.391Z,15.82
2023-02-01T12:03:35.853Z,15.82
2023-02-01T12:06:52.598Z,15.79
2023-02-01T12:09:54.719Z,15.76
2023-02-01T12:13:20.297Z,15.76
2023-02-01T12:16:49.370Z,15.75
2023-02-01T12:19:59.707Z,15.73
2023-02-01T12:23:28.631Z,15.71
2023-02-01T12:26:32.986Z,15.69
2023-02-01T12:29:38.753Z,15.69
2023-02-01T12:33:07.625Z,15.66
2023-02-01T12:36:21.257Z,15.65
2023-02-01T12:39:45.383Z,15.43
2023-02-01T12:42:53.021Z,15.16
2023-02-01T12:46:02.571Z,14.91
2023-02-01T12:49:11.145Z,14.64
2023-02-01T12:52:19.562Z,14.42
2023-02-01T12:55:33.124Z,14.33
2023-02-01T12:58:45.668Z,14.27
2023-02-01T13:02:00.329Z,14.23
2023-02-01T13:05:17.392Z,14.31
2023-02-01T13:08:24.977Z,14.39
2023-02-01T13:11:37.679Z,14.48
2023-02-01T13:14:47.325Z,14.56
2023-02-01T13:17:52.296Z,14.67
2023-02-01T13:21:07.949Z,14.75
2023-02-01T13:24:43.769Z,14.83
2023-02-01T13:27:47.132Z,14.91
2023-02-01T13:31:10.442Z,14.97
2023-02-01T13:34:30.910Z,15.04
2023-02-01T13:37:38.175Z,15.08
2023-02-01T13:40:52.014Z,15.14
2023-02-01T13:43:57.300Z,15.16
2023-02-01T13:47:03.835Z,15.19
2023-02-01T13:50:24.001Z,15.25
2023-02-01T13:53:33.318Z,15.26
2023-02-01T13:56:44.691Z,15.29
2023-02-01T13:59:46.146Z,15.31
2023-02-01T14:02:50.074Z,15.33
2023-02-01T14:05:51.562Z,15.32
2023-02-01T14:09:14.505Z,15.34
2023-02-01T14:12:47.007Z,15.36
2023-02-01T14:16:17.834Z,15.37
2023-02-01T14:19:22.618Z,15.38
2023-02-01T14:22:36.499Z,15.40
2023-02-01T14:25:38.639Z,15.41
2023-02-01T14:28:45.556Z,15.43
2023-02-01T14:32:03.715Z,15.45
2023-02-01T14:35:20.664Z,15.50
2023-02-01T14:38:22.577Z,15.51
2023-02-01T14:41:33.818Z,15.53
2023-02-01T14:44:37.951Z,15.54
2023-02-01T14:47:40.256Z,15.55
2023-02-01T14:50:50.511Z,15.58
2023-02-01T14:53:52.311Z,15.58
2023-02-01T14:56:55.560Z,15.59
2023-02-01T15:00:07.709Z,15.61
2023-02-01T15:03:34.591Z,15.61
2023-02-01T15:06:42.081Z,15.62
2023-02-01T15:09:47.905Z,15.60
2023-02-01T15:12:50.303Z,15.60
2023-02-01T15:16:13.332Z,15.60
2023-02-01T15:19:15.667Z,15.61
2023-02-01T15:22:20.257Z,15.62
2023-02-01T15:25:35.136Z,15.62
2023-02-01T15:28:36.697Z,15.62
2023-02-01T15:31:47.885Z,15.63
2023-02-01T15:34:50.722Z,15.63
2023-02-01T15:37:53.083Z,15.64
2023-02-01T15:41:08.572Z,15.65
2023-02-01T15:44:43.766Z,15.65
2023-02-01T15:47:49.419Z,15.67
2023-02-01T15:50:51.773Z,15.69
2023-02-01T15:53:53.492Z,15.71
2023-02-01T15:56:57.038Z,15.74
2023-02-01T16:00:02.059Z,15.76
2023-02-01T16:03:44.535Z,15.78
2023-02-01T16:06:56.156Z,15.79
2023-02-01T16:10:00.147Z,15.82
2023-02-01T16:13:01.757Z,15.82
2023-02-01T16:16:04.935Z,15.85
2023-02-01T16:19:06.439Z,15.85
2023-02-01T16:22:07.916Z,15.86
2023-02-01T16:25:09.556Z,15.88
2023-02-01T16:28:11.229Z,15.91
2023-02-01T16:31:20.185Z,15.93
2023-02-01T16:34:21.948Z,15.94
2023-02-01T16:37:25.503Z,15.97
2023-02-01T16:40:26.966Z,16.00
2023-02-01T16:43:28.592Z,16.03
2023-02-01T16:46:40.233Z,16.06
2023-02-01T16:49:44.046Z,16.06
2023-02-01T16:52:45.586Z,16.06
2023-02-01T16:55:50.251Z,15.84
2023-02-01T16:58:52.453Z,15.51
2023-02-01T17:01:53.950Z,15.06
2023-02-01T17:04:55.493Z,14.73
2023-02-01T17:08:04.856Z,14.47
2023-02-01T17:11:07.415Z,14.13
2023-02-01T17:14:20.623Z,14.06
2023-02-01T17:17:36.914Z,14.14
2023-02-01T17:20:40.068Z,14.29
2023-02-01T17:23:41.741Z,14.47
2023-02-01T17:26:44.634Z,14.60
2023-02-01T17:29:47.047Z,14.72
2023-02-01T17:32:48.737Z,14.85
2023-02-01T17:35:51.368Z,14.95
2023-02-01T17:39:04.788Z,15.04
2023-02-01T17:42:11.468Z,15.13
2023-02-01T17:45:36.681Z,15.22
2023-02-01T17:48:39.423Z,15.29
2023-02-01T17:51:41.621Z,15.35
2023-02-01T17:54:43.096Z,15.42
2023-02-01T17:57:45.080Z,15.49
2023-02-01T18:00:48.183Z,15.54
2023-02-01T18:03:50.822Z,15.58
2023-02-01T18:06:52.387Z,15.63
2023-02-01T18:09:53.876Z,15.67
2023-02-01T18:12:55.973Z,15.72
2023-02-01T18:15:59.776Z,15.77
2023-02-01T18:19:05.029Z,15.80
2023-02-01T18:22:07.374Z,15.84
2023-02-01T18:25:22.788Z,15.89
2023-02-01T18:28:24.534Z,15.91
2023-02-01T18:31:30.074Z,15.95
2023-02-01T18:34:31.670Z,15.95
2023-02-01T18:37:33.391Z,15.98
2023-02-01T18:40:39.542Z,16.01
2023-02-01T18:43:41.052Z,16.02
2023-02-01T18:46:43.485Z,16.05
2023-02-01T18:49:44.949Z,16.07
2023-02-01T18:52:47.242Z,16.12
2023-02-01T18:55:49.559Z,16.15
2023-02-01T18:58:51.065Z,16.20
2023-02-01T19:01:52.631Z,16.23
2023-02-01T19:04:54.225Z,16.28
2023-02-01T19:07:55.793Z,16.32
2023-02-01T19:10:57.273Z,16.34
2023-02-01T19:13:58.787Z,16.33
2023-02-01T19:17:00.400Z,16.35
2023-02-01T19:20:02.170Z,16.36
2023-02-01T19:23:03.931Z,16.39
2023-02-01T19:26:11.223Z,16.42
2023-02-01T19:29:12.706Z,16.45
2023-02-01T19:32:14.562Z,16.48
2023-02-01T19:35:21.847Z,16.50
2023-02-01T19:38:23.814Z,16.51
2023-02-01T19:41:25.353Z,16.51
2023-02-01T19:44:29.953Z,16.53
2023-02-01T19:47:31.517Z,16.55
2023-02-01T19:50:33.148Z,16.55
2023-02-01T19:53:34.714Z,16.56
2023-02-01T19:56:36.585Z,16.56
2023-02-01T19:59:38.263Z,16.60
2023-02-01T20:02:39.482Z,16.60
2023-02-01T20:05:41.026Z,16.58
2023-02-01T20:08:42.694Z,16.52
2023-02-01T20:11:44.893Z,16.45
2023-02-01T20:14:46.427Z,16.44
2023-02-01T20:17:47.906Z,16.43
2023-02-01T20:20:49.466Z,16.44
2023-02-01T20:23:51.015Z,16.46
2023-02-01T20:26:53.397Z,16.46
2023-02-01T20:29:54.945Z,16.44
2023-02-01T20:32:56.488Z,16.42
2023-02-01T20:35:58.231Z,16.40
2023-02-01T20:38:59.841Z,16.39
2023-02-01T20:42:01.368Z,16.42
2023-02-01T20:45:04.966Z,16.43
2023-02-01T20:48:06.739Z,16.44
2023-02-01T20:51:09.841Z,16.45
2023-02-01T20:54:11.522Z,16.46
2023-02-01T20:57:13.056Z,16.47
2023-02-01T21:00:15.456Z,16.47
2023-02-01T21:03:17.548Z,16.49
2023-02-01T21:06:19.096Z,16.49
2023-02-01T21:09:20.704Z,16.50
2023-02-01T21:12:22.683Z,16.51
2023-02-01T21:15:26.223Z,16.53
2023-02-01T21:18:28.213Z,16.52
2023-02-01T21:21:29.890Z,16.53
2023-02-01T21:24:31.419Z,16.52
2023-02-01T21:27:33.034Z,16.54
2023-02-01T21:30:34.656Z,16.55
2023-02-01T21:33:36.507Z,16.53
2023-02-01T21:36:38.266Z,16.55
2023-02-01T21:39:39.809Z,16.55
2023-02-01T21:42:43.572Z,16.55
2023-02-01T21:45:51.324Z,16.54
2023-02-01T21:49:04.337Z,16.56
2023-02-01T21:52:07.685Z,16.54
2023-02-01T21:55:10.224Z,16.55
2023-02-01T21:58:14.752Z,16.55
2023-02-01T22:01:16.350Z,16.55
2023-02-01T22:04:17.878Z,16.55
2023-02-01T22:07:19.701Z,16.54
2023-02-01T22:10:21.328Z,16.53
2023-02-01T22:13:22.778Z,16.51
2023-02-01T22:16:24.562Z,16.51
2023-02-01T22:19:26.363Z,16.49
2023-02-01T22:22:27.819Z,16.48
2023-02-01T22:25:29.620Z,16.47
2023-02-01T22:28:33.750Z,16.45
2023-02-01T22:31:36.112Z,16.44
2023-02-01T22:34:38.990Z,16.43
2023-02-01T22:37:40.496Z,16.42
2023-02-01T22:40:42.070Z,16.41
2023-02-01T22:43:44.261Z,16.40
2023-02-01T22:46:45.878Z,16.39
2023-02-01T22:49:47.440Z,16.38
2023-02-01T22:52:49.031Z,16.37
2023-02-01T22:55:51.924Z,16.35
2023-02-01T22:58:55.327Z,16.35
2023-02-01T23:01:56.836Z,16.33
2023-02-01T23:04:58.506Z,16.31
2023-02-01T23:08:00.003Z,16.32
2023-02-01T23:11:04.912Z,16.32
2023-02-01T23:14:06.889Z,16.29
2023-02-01T23:17:08.383Z,16.27
2023-02-01T23:20:16.976Z,16.27
2023-02-01T23:23:18.494Z,16.23
2023-02-01T23:26:21.385Z,16.23
2023-02-01T23:29:22.877Z,16.21
2023-02-01T23:32:24.461Z,16.20
2023-02-01T23:35:28.934Z,16.19
2023-02-01T23:38:30.862Z,16.18
2023-02-01T23:41:32.824Z,16.17
2023-02-01T23:44:34.315Z,16.16
2023-02-01T23:47:35.822Z,16.15
2023-02-01T23:50:37.412Z,16.15
2023-02-01T23:53:39.324Z,16.13
2023-02-01T23:56:43.089Z,16.13
2023-02-01T23:59:44.606Z,16.10
